This is the latest recevied weather packets stored in our database for station/object KA3RQR. If no packets are shown the sender has not sent any weather packets the latest 10 day(s).
| Time | Temp. | Humidity | Pressure | Rain* | Wind** | Luminosity | Snow |
|---|---|---|---|---|---|---|---|
| 1777995308 | 24.44° C | 44% | 1012.4 hPa | 0 mm | - | 56 W/m² | - |
| 1777995004 | 23.89° C | 47% | 1012.6 hPa | 0 mm | - | 113 W/m² | - |
| 1777994701 | 24.44° C | 48% | 1012.7 hPa | 0 mm | - | 69 W/m² | - |
| 1777994396 | 23.89° C | 48% | 1012.5 hPa | 0 mm | - | 95 W/m² | - |
| 1777994092 | 23.89° C | 48% | 1012.4 hPa | 0 mm | - | 54 W/m² | - |
| 1777993789 | 23.33° C | 49% | 1012.6 hPa | 0 mm | - | 75 W/m² | - |
| 1777993486 | 23.33° C | 49% | 1012.7 hPa | 0 mm | - | 43 W/m² | - |
| 1777993185 | 23.33° C | 50% | 1012.5 hPa | 0 mm | - | 44 W/m² | - |
| 1777992884 | 23.33° C | 50% | 1012.6 hPa | 0 mm | - | 44 W/m² | - |
| 1777992582 | 22.78° C | 49% | 1012.5 hPa | 0 mm | - | 44 W/m² | - |
| 1777992279 | 22.78° C | 51% | 1012.6 hPa | 0 mm | - | 44 W/m² | - |
| 1777991976 | 22.22° C | 52% | 1012.6 hPa | 0 mm | - | 44 W/m² | - |
| 1777991674 | 22.22° C | 51% | 1012.6 hPa | 0 mm | - | 49 W/m² | - |
| 1777991371 | 22.22° C | 49% | 1012.6 hPa | 0 mm | - | 43 W/m² | - |
| 1777991068 | 21.67° C | 52% | 1012.6 hPa | 0 mm | - | 63 W/m² | - |
| 1777990765 | 21.67° C | 50% | 1012.5 hPa | 0 mm | - | 44 W/m² | - |
| 1777990462 | 21.67° C | 51% | 1012.9 hPa | 0 mm | - | 43 W/m² | - |
| 1777989856 | 21.11° C | 54% | 1012.8 hPa | 0 mm | - | 48 W/m² | - |
| 1777989553 | 20.56° C | 55% | 1012.6 hPa | 0 mm | - | 42 W/m² | - |
| 1777989250 | 20.56° C | 55% | 1012.5 hPa | 0 mm | - | 42 W/m² | - |
| 1777988946 | 20.56° C | 54% | 1012.7 hPa | 0 mm | - | 50 W/m² | - |
| 1777988642 | 20° C | 55% | 1012.7 hPa | 0 mm | - | 41 W/m² | - |
| 1777988339 | 20° C | 56% | 1012.7 hPa | 0 mm | - | 40 W/m² | - |
| 1777988036 | 19.44° C | 56% | 1012.8 hPa | 0 mm | - | 40 W/m² | - |
| 1777987731 | 19.44° C | 57% | 1012.7 hPa | 0 mm | - | 39 W/m² | - |
* Rain latest hour (hover to see other rain measurements)
** Current wind speed in m/s (hover to see current wind gust speed)